< Typhoon 202017 2020 Season Typhoon 202019 >
Typhoon 202018 (MOLAVE)
General InformationTrack Information on Google MapsDetailed Wind InformationForecast History on Google MapsAccess Analytics MapList of All Images || NewsDisaster Info.WeblogTrackbackTyphoon FrontTwiphoonTyphoon Now!Typhoon ImaginationJMA Disaster Info. XMLResourceGoogle EarthGE AnimationAtom FeedGeoJSON
Detalied Best Track (Time Zone = UTC)
Year Month Day Hour Lat. Long. Pressure (hPa) Wind (kt) Class Image Chart
2020 10 23 12 10.7 133.4 1006 30 2 Image Chart
2020 10 23 15 10.7 133.3 1006 30 2 Image Chart
2020 10 23 18 11.3 132.5 1004 30 2 Image Chart
2020 10 23 21 11.6 132.0 1004 30 2 Image Chart
2020 10 24 00 11.8 131.4 1006 30 2 Image Chart
2020 10 24 03 12.7 130.5 1004 30 2 Image Chart
2020 10 24 06 13.1 130.1 1004 30 2 Image Chart
2020 10 24 09 13.1 129.6 1004 30 2 Image Chart
2020 10 24 12 13.3 128.8 1004 30 2 Image Chart
2020 10 24 15 13.3 128.5 1004 30 2 Image Chart
2020 10 24 18 13.4 127.8 1000 35 3 Image Chart
2020 10 24 21 13.5 127.1 1000 35 3 Image Chart
2020 10 25 00 13.5 126.4 994 45 3 Image Chart
2020 10 25 03 13.4 125.7 994 45 3 Image Chart
2020 10 25 06 13.4 124.7 990 55 4 Image Chart
2020 10 25 09 13.4 124.3 980 65 5 Image Chart
2020 10 25 12 13.5 123.2 980 65 5 Image Chart
2020 10 25 15 13.3 122.3 980 65 5 Image Chart
2020 10 25 18 13.3 121.9 980 65 5 Image Chart
2020 10 25 21 13.2 121.3 980 65 5 Image Chart
2020 10 26 00 13.2 120.4 980 65 5 Image Chart
2020 10 26 03 13.3 119.5 980 65 5 Image Chart
2020 10 26 06 13.5 118.8 975 65 5 Image Chart
2020 10 26 09 13.6 118.0 975 65 5 Image Chart
2020 10 26 12 13.4 117.5 970 70 5 Image Chart
2020 10 26 15 13.2 116.7 970 70 5 Image Chart
2020 10 26 21 13.4 115.4 965 75 5 Image Chart
2020 10 27 00 13.3 114.8 955 80 5 Image Chart
2020 10 27 03 13.3 113.8 950 85 5 Image Chart
2020 10 27 06 13.3 113.4 950 85 5 Image Chart
2020 10 27 09 13.6 112.7 950 85 5 Image Chart
2020 10 27 15 13.5 111.7 950 85 5 Image Chart
2020 10 27 18 13.9 111.0 950 85 5 Image Chart
2020 10 27 21 14.3 110.2 950 85 5 Image Chart
2020 10 28 00 14.5 109.8 955 80 5 Image Chart
2020 10 28 03 14.8 109.2 965 75 5 Image Chart
2020 10 28 06 15.2 108.7 970 70 5 Image Chart
2020 10 28 09 15.2 107.8 975 65 5 Image Chart
2020 10 28 12 15.2 107.2 990 50 4 Image Chart
2020 10 28 15 15.2 106.7 996 40 3 Image Chart
2020 10 28 18 15.3 105.7 1000 35 3 Image Chart
2020 10 28 21 15.4 105.2 1000 35 3 Image Chart
2020 10 29 00 15.0 105.0 1004 0 2 Image Chart
Japan Meteorological Agency Best Track Data | Correction Date : 2020-10-29
< Typhoon 202017 2020 Season Typhoon 202019 >

Help